createdAt,value
2019-05-15T00:01:21.663Z,0.40
2019-05-15T00:03:49.541Z,3.37
2019-05-15T00:06:19.101Z,0.70
2019-05-15T00:08:48.037Z,0.10
2019-05-15T00:11:15.989Z,1.63
2019-05-15T00:13:43.682Z,0.77
2019-05-15T00:16:11.518Z,0.50
2019-05-15T00:18:39.413Z,1.27
2019-05-15T00:21:09.263Z,0.30
2019-05-15T00:23:38.669Z,0.30
2019-05-15T00:26:05.871Z,0.40
2019-05-15T00:28:33.735Z,0.83
2019-05-15T00:31:01.488Z,0.40
2019-05-15T00:33:29.263Z,1.47
2019-05-15T00:35:58.928Z,0.27
2019-05-15T00:38:27.974Z,2.37
2019-05-15T00:40:58.285Z,1.10
2019-05-15T00:43:25.336Z,1.60
2019-05-15T00:45:53.526Z,0.10
2019-05-15T00:48:21.393Z,0.40
2019-05-15T00:50:49.260Z,0.50
2019-05-15T00:53:18.975Z,0.63
2019-05-15T00:55:48.523Z,4.63
2019-05-15T00:58:15.878Z,0.63
2019-05-15T01:00:44.633Z,1.57
2019-05-15T01:03:12.592Z,0.27
2019-05-15T01:05:40.365Z,1.10
2019-05-15T01:08:08.358Z,0.67
2019-05-15T01:10:38.373Z,1.23
2019-05-15T01:13:07.759Z,0.83
2019-05-15T01:15:34.911Z,0.73
2019-05-15T01:18:02.678Z,0.37
2019-05-15T01:20:30.424Z,0.33
2019-05-15T01:22:59.159Z,1.13
2019-05-15T01:25:28.052Z,0.20
2019-05-15T01:27:58.217Z,0.83
2019-05-15T01:30:25.491Z,0.40
2019-05-15T01:32:53.360Z,0.50
2019-05-15T01:35:21.232Z,1.07
2019-05-15T01:37:49.102Z,0.90
2019-05-15T01:40:18.243Z,0.53
2019-05-15T01:42:46.260Z,0.90
2019-05-15T01:45:14.129Z,0.40
2019-05-15T01:47:42.002Z,0.10
2019-05-15T01:50:09.883Z,0.57
2019-05-15T01:52:38.961Z,1.43
2019-05-15T01:55:09.122Z,1.53
2019-05-15T01:57:38.345Z,0.30
2019-05-15T02:00:08.710Z,0.83
2019-05-15T02:02:38.975Z,0.40
2019-05-15T02:05:08.456Z,2.83
2019-05-15T02:07:36.162Z,0.53
2019-05-15T02:10:05.152Z,0.10
2019-05-15T02:12:33.081Z,0.33
2019-05-15T02:15:00.854Z,0.53
2019-05-15T02:17:28.715Z,0.23
2019-05-15T02:19:58.614Z,0.63
2019-05-15T02:22:28.168Z,1.77
2019-05-15T02:24:55.498Z,1.43
2019-05-15T02:27:23.250Z,0.27
2019-05-15T02:29:51.124Z,2.00
2019-05-15T02:32:19.487Z,1.93
2019-05-15T02:34:49.995Z,0.67
2019-05-15T02:37:19.266Z,0.60
2019-05-15T02:39:49.323Z,0.20
2019-05-15T02:42:15.691Z,3.50
2019-05-15T02:44:43.775Z,1.13
2019-05-15T02:47:11.531Z,0.80
2019-05-15T02:49:39.781Z,0.37
2019-05-15T02:52:09.883Z,0.30
2019-05-15T02:54:39.724Z,0.20
2019-05-15T02:57:09.589Z,1.37
2019-05-15T02:59:39.333Z,0.33
2019-05-15T03:02:05.906Z,0.27
2019-05-15T03:04:33.773Z,0.67
2019-05-15T03:07:01.648Z,0.63
2019-05-15T03:09:29.913Z,1.40
2019-05-15T03:11:58.636Z,2.47
2019-05-15T03:14:29.124Z,0.40
2019-05-15T03:16:59.327Z,1.87
2019-05-15T03:19:25.277Z,3.47
2019-05-15T03:21:53.046Z,0.93
2019-05-15T03:24:20.927Z,0.20
2019-05-15T03:26:49.654Z,0.60
2019-05-15T03:29:20.888Z,1.00
2019-05-15T03:32:00.882Z,0.43
2019-05-15T03:34:23.414Z,0.87
2019-05-15T03:36:51.756Z,1.30
2019-05-15T03:39:18.805Z,0.77
2019-05-15T03:41:44.919Z,0.80
2019-05-15T03:44:12.677Z,0.77
2019-05-15T03:46:41.086Z,1.80
2019-05-15T03:49:08.821Z,1.63
2019-05-15T03:51:40.088Z,0.97
2019-05-15T03:54:09.179Z,1.67
2019-05-15T03:56:39.026Z,0.87
2019-05-15T03:59:04.791Z,0.40
2019-05-15T04:01:38.788Z,1.97
2019-05-15T04:04:01.916Z,0.63
2019-05-15T04:06:29.989Z,0.33
2019-05-15T04:08:58.646Z,1.13
2019-05-15T04:11:29.161Z,1.20
2019-05-15T04:13:59.196Z,0.13
2019-05-15T04:16:25.715Z,0.57
2019-05-15T04:18:53.586Z,0.40
2019-05-15T04:21:21.572Z,0.60
2019-05-15T04:23:50.274Z,0.20
2019-05-15T04:26:19.426Z,0.43
2019-05-15T04:28:49.524Z,0.47
2019-05-15T04:31:19.424Z,0.67
2019-05-15T04:33:48.896Z,1.60
2019-05-15T04:36:18.902Z,4.53
2019-05-15T04:38:45.027Z,0.30
2019-05-15T04:41:12.786Z,0.30
2019-05-15T04:43:45.019Z,0.77
2019-05-15T04:46:10.254Z,0.13
2019-05-15T04:48:39.930Z,0.27
2019-05-15T04:51:09.751Z,0.83
2019-05-15T04:53:39.402Z,0.30
2019-05-15T04:56:09.436Z,2.40
2019-05-15T04:58:39.163Z,0.40
2019-05-15T05:01:08.959Z,0.23
2019-05-15T05:03:35.052Z,1.37
2019-05-15T05:06:03.046Z,0.27
2019-05-15T05:08:30.921Z,0.50
2019-05-15T05:10:59.333Z,0.63
2019-05-15T05:13:28.707Z,0.83
2019-05-15T05:15:58.772Z,0.10
2019-05-15T05:18:29.499Z,0.53
2019-05-15T05:20:57.673Z,0.73
2019-05-15T05:23:25.180Z,1.70
2019-05-15T05:25:52.961Z,0.20
2019-05-15T05:28:20.721Z,0.10
2019-05-15T05:30:48.695Z,0.60
2019-05-15T05:33:17.921Z,0.67
2019-05-15T05:35:48.173Z,0.40
2019-05-15T05:38:15.791Z,1.37
2019-05-15T05:40:43.760Z,0.20
2019-05-15T05:43:11.508Z,2.27
2019-05-15T05:45:39.276Z,0.40
2019-05-15T05:48:08.848Z,0.77
2019-05-15T05:50:44.296Z,0.13
2019-05-15T05:53:12.722Z,1.17
2019-05-15T05:55:40.588Z,0.67
2019-05-15T05:58:08.345Z,2.20
2019-05-15T06:00:39.346Z,0.73
2019-05-15T06:03:08.694Z,0.40
2019-05-15T06:05:38.732Z,0.47
2019-05-15T06:08:07.947Z,0.40
2019-05-15T06:10:38.319Z,1.80
2019-05-15T06:13:08.508Z,0.53
2019-05-15T06:15:35.090Z,0.50
2019-05-15T06:18:02.916Z,0.53
2019-05-15T06:20:30.677Z,1.67
2019-05-15T06:22:58.340Z,2.10
2019-05-15T06:25:30.261Z,0.17
2019-05-15T06:27:58.185Z,0.77
2019-05-15T06:30:29.750Z,0.70
2019-05-15T06:33:08.132Z,0.77
2019-05-15T06:35:24.920Z,1.33
2019-05-15T06:37:52.787Z,0.63
2019-05-15T06:40:20.755Z,1.23
2019-05-15T06:42:48.721Z,2.57
2019-05-15T06:45:18.803Z,0.27
2019-05-15T06:47:48.156Z,0.67
2019-05-15T06:50:17.953Z,2.17
2019-05-15T06:52:45.938Z,4.07
2019-05-15T06:55:13.687Z,0.60
2019-05-15T06:57:41.456Z,1.17
2019-05-15T07:00:09.628Z,1.03
2019-05-15T07:02:38.260Z,1.33
2019-05-15T07:05:07.932Z,1.13
2019-05-15T07:07:37.935Z,0.70
2019-05-15T07:10:08.691Z,1.07
2019-05-15T07:12:35.643Z,0.20
2019-05-15T07:15:04.728Z,1.53
2019-05-15T07:17:32.493Z,0.33
2019-05-15T07:20:00.366Z,1.77
2019-05-15T07:22:28.898Z,9.10
2019-05-15T07:24:58.237Z,1.53
2019-05-15T07:27:28.180Z,1.37
2019-05-15T07:29:55.634Z,1.90
2019-05-15T07:32:23.598Z,2.10
2019-05-15T07:34:51.473Z,1.87
2019-05-15T07:37:19.339Z,1.10
2019-05-15T07:39:48.835Z,5.20
2019-05-15T07:42:18.493Z,2.30
2019-05-15T07:44:48.038Z,6.33
2019-05-15T07:47:15.314Z,4.03
2019-05-15T07:49:43.197Z,2.17
2019-05-15T07:52:11.059Z,0.73
2019-05-15T07:54:38.780Z,4.67
2019-05-15T07:57:08.794Z,2.30
2019-05-15T07:59:35.822Z,4.03
2019-05-15T08:02:03.560Z,1.10
2019-05-15T08:04:32.990Z,1.03
2019-05-15T08:07:00.582Z,3.07
2019-05-15T08:09:28.917Z,1.63
2019-05-15T08:11:59.256Z,0.70
2019-05-15T08:14:26.063Z,3.37
2019-05-15T08:16:54.040Z,1.70
2019-05-15T08:19:23.024Z,1.57
2019-05-15T08:21:51.849Z,1.80
2019-05-15T08:24:20.002Z,2.03
2019-05-15T08:26:48.652Z,0.83
2019-05-15T08:29:20.939Z,4.97
2019-05-15T08:31:48.083Z,2.93
2019-05-15T08:34:16.365Z,3.50
2019-05-15T08:36:48.307Z,1.53
2019-05-15T08:39:16.226Z,3.97
2019-05-15T08:41:43.989Z,5.93
2019-05-15T08:44:11.951Z,2.27
2019-05-15T08:46:39.820Z,1.03
2019-05-15T08:49:09.194Z,1.60
2019-05-15T08:51:38.110Z,0.87
2019-05-15T08:54:08.329Z,2.40
2019-05-15T08:56:35.604Z,1.70
2019-05-15T08:59:03.571Z,1.23
2019-05-15T09:01:31.325Z,1.70
2019-05-15T09:03:59.093Z,1.33
2019-05-15T09:06:29.089Z,1.43
2019-05-15T09:08:58.474Z,0.57
2019-05-15T09:11:28.196Z,0.93
2019-05-15T09:13:55.291Z,1.63
2019-05-15T09:16:22.982Z,0.80
2019-05-15T09:18:51.010Z,1.90
2019-05-15T09:21:19.399Z,3.40
2019-05-15T09:23:49.888Z,1.53
2019-05-15T09:26:19.269Z,1.80
2019-05-15T09:28:49.155Z,1.87
2019-05-15T09:31:15.677Z,1.57
2019-05-15T09:33:43.445Z,1.70
2019-05-15T09:36:11.226Z,0.27
2019-05-15T09:38:39.340Z,1.60
2019-05-15T09:41:08.903Z,1.40
2019-05-15T09:43:38.491Z,0.43
2019-05-15T09:46:08.146Z,7.40
2019-05-15T09:48:35.774Z,0.87
2019-05-15T09:51:03.867Z,2.53
2019-05-15T09:53:31.620Z,0.37
2019-05-15T09:56:00.019Z,1.43
2019-05-15T09:58:30.056Z,0.67
2019-05-15T10:00:57.393Z,0.93
2019-05-15T10:03:25.140Z,2.00
2019-05-15T10:05:53.008Z,0.90
2019-05-15T10:08:21.552Z,3.50
2019-05-15T10:10:49.570Z,2.30
2019-05-15T10:13:18.429Z,4.57
2019-05-15T10:15:50.537Z,2.33
2019-05-15T10:18:18.709Z,6.53
2019-05-15T10:20:45.305Z,0.53
2019-05-15T10:23:13.104Z,1.50
2019-05-15T10:25:40.978Z,3.87
2019-05-15T10:28:09.966Z,0.50
2019-05-15T10:30:39.478Z,2.13
2019-05-15T10:33:08.546Z,0.97
2019-05-15T10:35:39.129Z,5.70
2019-05-15T10:38:08.551Z,1.63
2019-05-15T10:40:35.862Z,4.57
2019-05-15T10:43:03.638Z,8.23
2019-05-15T10:45:31.911Z,0.77
2019-05-15T10:47:59.883Z,1.60
2019-05-15T10:50:28.330Z,3.43
2019-05-15T10:52:56.537Z,8.37
2019-05-15T10:55:24.314Z,2.27
2019-05-15T10:57:52.217Z,6.60
2019-05-15T11:00:20.414Z,0.83
2019-05-15T11:02:49.092Z,1.73
2019-05-15T11:05:18.017Z,3.27
2019-05-15T11:07:48.073Z,3.10
2019-05-15T11:10:18.382Z,3.40
2019-05-15T11:12:46.034Z,6.60
2019-05-15T11:15:14.006Z,1.30
2019-05-15T11:17:41.890Z,4.30
2019-05-15T11:20:10.045Z,7.67
2019-05-15T11:22:42.372Z,1.80
2019-05-15T11:25:10.451Z,2.87
2019-05-15T11:27:38.997Z,2.37
2019-05-15T11:30:07.804Z,1.53
2019-05-15T11:32:35.653Z,3.73
2019-05-15T11:35:04.689Z,1.57
2019-05-15T11:37:32.497Z,5.63
2019-05-15T11:40:00.267Z,3.80
2019-05-15T11:42:28.848Z,0.87
2019-05-15T11:44:58.438Z,2.03
2019-05-15T11:47:27.890Z,4.63
2019-05-15T11:49:58.321Z,1.80
2019-05-15T11:52:25.134Z,3.87
2019-05-15T11:54:53.110Z,3.20
2019-05-15T11:57:35.826Z,4.50
2019-05-15T11:59:55.201Z,4.60
2019-05-15T12:02:19.798Z,4.13
2019-05-15T12:04:47.763Z,1.70
2019-05-15T12:07:17.662Z,2.67
2019-05-15T12:09:44.795Z,2.83
2019-05-15T12:12:12.694Z,3.13
2019-05-15T12:14:40.562Z,1.83
2019-05-15T12:17:15.049Z,5.47
2019-05-15T12:19:39.151Z,5.43
2019-05-15T12:22:07.042Z,1.03
2019-05-15T12:24:36.866Z,4.87
2019-05-15T12:27:13.720Z,2.80
2019-05-15T12:29:33.618Z,2.90
2019-05-15T12:32:21.797Z,1.00
2019-05-15T12:34:30.669Z,7.33
2019-05-15T12:36:58.539Z,3.33
2019-05-15T12:39:30.223Z,2.77
2019-05-15T13:01:50.810Z,3.57
2019-05-15T13:04:19.990Z,3.30
2019-05-15T13:07:10.169Z,1.07
2019-05-15T13:09:19.284Z,2.40
2019-05-15T13:11:48.486Z,4.93
2019-05-15T13:14:18.719Z,4.57
2019-05-15T13:16:47.910Z,1.30
2019-05-15T13:19:15.145Z,1.37
2019-05-15T13:21:42.853Z,3.23
2019-05-15T13:24:10.582Z,2.77
2019-05-15T13:26:38.591Z,2.20
2019-05-15T13:29:08.761Z,2.37
2019-05-15T13:31:38.166Z,1.93
2019-05-15T13:34:07.946Z,1.05
2019-05-15T13:36:35.352Z,8.23
2019-05-15T13:39:03.615Z,2.20
2019-05-15T13:41:31.592Z,2.73
2019-05-15T13:43:59.345Z,1.77
2019-05-15T13:46:29.061Z,0.50
2019-05-15T13:48:59.143Z,3.37
2019-05-15T13:51:28.781Z,0.77
2019-05-15T13:53:55.632Z,2.43
2019-05-15T13:56:24.123Z,0.93
2019-05-15T13:58:51.781Z,3.80
2019-05-15T14:01:19.695Z,1.33
2019-05-15T14:03:48.315Z,3.80
2019-05-15T14:06:16.325Z,2.50
2019-05-15T14:08:44.077Z,1.33
2019-05-15T14:11:11.950Z,4.07
2019-05-15T14:13:39.821Z,2.77
2019-05-15T14:16:09.741Z,3.00
2019-05-15T14:18:39.074Z,4.73
2019-05-15T14:21:08.750Z,3.80
2019-05-15T14:23:38.261Z,5.90
2019-05-15T14:26:15.126Z,5.00
2019-05-15T14:28:34.819Z,3.87
2019-05-15T14:31:02.770Z,2.13
2019-05-15T14:33:30.555Z,2.77
2019-05-15T14:35:58.312Z,2.77
2019-05-15T14:38:26.086Z,3.03
2019-05-15T14:40:53.841Z,3.30
2019-05-15T14:43:21.618Z,8.23
2019-05-15T14:45:49.480Z,4.87
2019-05-15T14:48:19.009Z,4.73
2019-05-15T14:50:47.648Z,3.57
2019-05-15T14:53:18.746Z,2.50
2019-05-15T14:55:49.211Z,5.33
2019-05-15T14:58:19.514Z,3.90
2019-05-15T15:00:49.680Z,6.53
2019-05-15T15:03:15.094Z,2.83
2019-05-15T15:05:42.862Z,8.13
2019-05-15T15:08:21.744Z,2.23
2019-05-15T15:10:40.144Z,1.73
2019-05-15T15:13:09.259Z,5.80
2019-05-15T15:15:37.987Z,6.57
2019-05-15T15:18:08.037Z,4.07
2019-05-15T15:20:35.413Z,0.87
2019-05-15T15:23:03.160Z,1.97
2019-05-15T15:25:30.924Z,4.77
2019-05-15T15:27:58.816Z,3.17
2019-05-15T15:30:26.772Z,2.83
2019-05-15T15:32:54.640Z,2.03
2019-05-15T15:35:22.401Z,1.97
2019-05-15T15:37:50.069Z,2.57
2019-05-15T15:40:18.885Z,1.43
2019-05-15T15:42:48.518Z,1.20
2019-05-15T15:45:16.450Z,4.97
2019-05-15T15:47:44.208Z,4.40
2019-05-15T15:50:12.084Z,2.67
2019-05-15T15:52:39.947Z,1.47
2019-05-15T15:55:09.055Z,5.63
2019-05-15T15:57:39.275Z,4.23
2019-05-15T16:00:10.913Z,3.13
2019-05-15T16:02:41.000Z,2.47
2019-05-15T16:05:09.005Z,2.53
2019-05-15T16:07:38.053Z,0.67
2019-05-15T16:10:08.122Z,3.00
2019-05-15T16:12:35.376Z,1.27
2019-05-15T16:15:03.570Z,2.27
2019-05-15T16:17:31.316Z,7.03
2019-05-15T16:19:59.191Z,4.20
2019-05-15T16:22:28.412Z,6.07
2019-05-15T16:24:58.736Z,8.47
2019-05-15T16:27:25.869Z,0.93
2019-05-15T16:29:53.628Z,12.50
2019-05-15T16:32:22.017Z,1.57
2019-05-15T16:34:50.196Z,4.30
2019-05-15T16:37:18.837Z,3.33
2019-05-15T16:39:48.676Z,9.70
2019-05-15T16:42:18.037Z,13.20
2019-05-15T16:44:45.558Z,6.13
2019-05-15T16:47:13.331Z,3.67
2019-05-15T16:49:41.018Z,3.53
2019-05-15T16:52:09.289Z,4.73
2019-05-15T16:54:38.298Z,3.67
2019-05-15T16:57:06.255Z,10.40
2019-05-15T16:59:35.909Z,4.17
2019-05-15T17:02:03.510Z,4.33
2019-05-15T17:04:31.470Z,10.87
2019-05-15T17:06:59.344Z,20.87
2019-05-15T17:09:28.120Z,9.60
2019-05-15T17:11:58.135Z,5.67
2019-05-15T17:14:25.613Z,8.80
2019-05-15T17:16:53.481Z,3.93
2019-05-15T17:19:21.200Z,2.60
2019-05-15T17:21:49.014Z,2.43
2019-05-15T17:24:16.767Z,2.47
2019-05-15T17:26:44.533Z,2.53
2019-05-15T17:29:12.406Z,3.63
2019-05-15T17:31:40.684Z,2.30
2019-05-15T17:34:10.211Z,3.57
2019-05-15T17:36:38.334Z,3.97
2019-05-15T17:39:08.682Z,3.80
2019-05-15T17:41:36.090Z,3.47
2019-05-15T17:44:03.922Z,3.80
2019-05-15T17:46:31.694Z,2.47
2019-05-15T17:49:08.838Z,6.77
2019-05-15T17:51:29.263Z,7.43
2019-05-15T17:53:58.303Z,6.70
2019-05-15T17:56:28.214Z,3.10
2019-05-15T17:58:57.799Z,8.47
2019-05-15T18:01:25.037Z,9.77
2019-05-15T18:03:52.816Z,2.30
2019-05-15T18:06:20.876Z,2.50
2019-05-15T18:08:48.811Z,3.57
2019-05-15T18:11:18.557Z,2.53
2019-05-15T18:13:46.013Z,4.97
2019-05-15T18:16:14.024Z,4.33
2019-05-15T18:18:41.970Z,3.77
2019-05-15T18:21:09.934Z,4.17
2019-05-15T18:23:38.856Z,2.23
2019-05-15T18:26:08.849Z,2.10
2019-05-15T18:28:38.740Z,6.07
2019-05-15T18:31:05.806Z,5.47
2019-05-15T18:33:33.564Z,5.77
2019-05-15T18:36:01.337Z,6.97
2019-05-15T18:38:29.118Z,4.20
2019-05-15T18:40:58.266Z,4.60
2019-05-15T18:43:28.251Z,6.00
2019-05-15T18:45:55.786Z,6.27
2019-05-15T18:48:23.543Z,4.50
2019-05-15T18:50:51.322Z,2.67
2019-05-15T18:53:19.183Z,5.43
2019-05-15T18:55:48.835Z,3.33
2019-05-15T18:58:18.981Z,3.47
2019-05-15T19:00:48.460Z,7.27
2019-05-15T19:03:20.378Z,4.17
2019-05-15T19:05:44.879Z,5.33
2019-05-15T19:08:12.567Z,7.90
2019-05-15T19:10:40.601Z,6.43
2019-05-15T19:13:08.621Z,5.10
2019-05-15T19:15:37.951Z,9.03
2019-05-15T19:20:48.663Z,5.00
2019-05-15T19:23:18.124Z,4.30
2019-05-15T19:25:45.798Z,3.40
2019-05-15T19:28:13.786Z,13.77
2019-05-15T19:30:42.188Z,9.57
2019-05-15T19:33:10.296Z,4.33
2019-05-15T19:35:38.674Z,5.40
2019-05-15T19:38:06.659Z,8.93
2019-05-15T19:40:34.687Z,7.63
2019-05-15T19:43:04.007Z,10.10
2019-05-15T19:45:32.208Z,6.60
2019-05-15T19:48:00.260Z,11.80
2019-05-15T19:50:28.727Z,5.63
2019-05-15T19:52:59.171Z,9.10
2019-05-15T19:55:26.466Z,13.97
2019-05-15T19:57:54.130Z,11.77
2019-05-15T20:00:21.848Z,6.37
2019-05-15T20:02:49.858Z,11.20
2019-05-15T20:05:18.323Z,7.13
2019-05-15T20:07:47.987Z,5.27
2019-05-15T20:10:18.654Z,7.47
2019-05-15T20:12:47.999Z,11.43
2019-05-15T20:15:15.973Z,10.90
2019-05-15T20:17:43.689Z,7.57
2019-05-15T20:20:13.464Z,7.50
2019-05-15T20:22:41.446Z,13.13
2019-05-15T20:25:09.839Z,9.13
2019-05-15T20:27:39.038Z,6.50
2019-05-15T20:30:08.664Z,13.53
2019-05-15T20:32:38.704Z,8.40
2019-05-15T20:35:08.657Z,4.93
2019-05-15T20:37:38.909Z,4.33
2019-05-15T20:40:08.855Z,9.63
2019-05-15T20:42:38.041Z,4.53
2019-05-15T20:45:09.287Z,8.23
2019-05-15T20:47:38.586Z,7.93
2019-05-15T20:50:08.487Z,6.40
2019-05-15T20:52:39.058Z,7.50
2019-05-15T20:55:07.978Z,6.43
2019-05-15T20:57:37.841Z,7.10
2019-05-15T21:00:08.012Z,7.27
2019-05-15T21:02:37.810Z,5.40
2019-05-15T21:05:08.412Z,5.93
2019-05-15T21:07:38.778Z,3.03
2019-05-15T21:10:08.013Z,6.40
2019-05-15T21:12:40.478Z,6.23
2019-05-15T21:15:08.607Z,5.47
2019-05-15T21:17:39.125Z,7.53
2019-05-15T21:20:09.040Z,5.27
2019-05-15T21:22:35.604Z,7.53
2019-05-15T21:25:03.744Z,9.20
2019-05-15T21:27:32.927Z,11.97
2019-05-15T21:30:00.830Z,9.40
2019-05-15T21:32:28.627Z,8.83
2019-05-15T21:34:58.271Z,9.37
2019-05-15T21:37:27.541Z,7.50
2019-05-15T21:39:55.241Z,17.63
2019-05-15T21:42:23.302Z,6.03
2019-05-15T21:44:51.281Z,3.77
2019-05-15T21:47:18.993Z,9.00
2019-05-15T21:49:48.181Z,4.70
2019-05-15T21:52:18.495Z,5.30
2019-05-15T21:54:47.464Z,5.63
2019-05-15T21:57:30.050Z,5.77
2019-05-15T21:59:44.440Z,5.43
2019-05-15T22:02:14.199Z,5.53
2019-05-15T22:04:54.789Z,14.30
2019-05-15T22:07:11.523Z,11.20
2019-05-15T22:09:39.903Z,7.10
2019-05-15T22:12:07.775Z,8.97
2019-05-15T22:14:35.445Z,10.43
2019-05-15T22:17:03.202Z,6.97
2019-05-15T22:19:30.861Z,5.07
2019-05-15T22:21:58.726Z,8.83
2019-05-15T22:24:28.487Z,10.80
2019-05-15T22:26:58.292Z,5.13
2019-05-15T22:29:25.651Z,5.67
2019-05-15T22:31:53.807Z,8.63
2019-05-15T22:34:21.595Z,4.03
2019-05-15T22:36:51.025Z,4.63
2019-05-15T22:39:19.040Z,8.07
2019-05-15T22:41:47.869Z,6.33
2019-05-15T22:44:18.975Z,7.13
2019-05-15T22:46:45.588Z,11.57
2019-05-15T22:49:13.795Z,7.53
2019-05-15T22:51:41.766Z,6.13
2019-05-15T22:54:09.468Z,9.67
2019-05-15T22:56:37.881Z,5.70
2019-05-15T22:59:05.710Z,7.17
2019-05-15T23:01:33.575Z,2.90
2019-05-15T23:04:01.570Z,5.57
2019-05-15T23:06:29.289Z,4.13
2019-05-15T23:08:58.104Z,6.07
2019-05-15T23:11:26.949Z,8.33
2019-05-15T23:13:54.755Z,9.27
2019-05-15T23:16:22.473Z,11.20
2019-05-15T23:18:50.490Z,6.27
2019-05-15T23:21:18.637Z,5.80
2019-05-15T23:23:48.649Z,5.53
2019-05-15T23:26:16.001Z,10.63
2019-05-15T23:28:43.713Z,4.37
2019-05-15T23:31:11.373Z,13.77
2019-05-15T23:33:39.327Z,13.83
2019-05-15T23:36:07.377Z,12.20
2019-05-15T23:38:35.163Z,5.57
2019-05-15T23:41:02.872Z,7.23
2019-05-15T23:43:30.546Z,6.50
2019-05-15T23:45:58.959Z,5.47
2019-05-15T23:48:28.407Z,3.03
2019-05-15T23:50:56.334Z,6.90
2019-05-15T23:53:24.198Z,4.83
2019-05-15T23:55:51.904Z,5.90
2019-05-15T23:58:19.633Z,6.13
